sensor_id;sensor_type;location;lat;lon;timestamp;P1;durP1;ratioP1;P2;durP2;ratioP2
5967;SDS011;3010;51.028;4.170;2023-07-20T00:00:59;3.87;;;3.47;;
5967;SDS011;3010;51.028;4.170;2023-07-20T00:03:25;6.05;;;3.92;;
5967;SDS011;3010;51.028;4.170;2023-07-20T00:05:52;4.30;;;3.50;;
5967;SDS011;3010;51.028;4.170;2023-07-20T00:08:18;6.23;;;3.50;;
5967;SDS011;3010;51.028;4.170;2023-07-20T00:10:45;4.50;;;3.23;;
5967;SDS011;3010;51.028;4.170;2023-07-20T00:13:12;4.37;;;3.67;;
5967;SDS011;3010;51.028;4.170;2023-07-20T00:15:38;4.03;;;3.30;;
5967;SDS011;3010;51.028;4.170;2023-07-20T00:18:05;3.77;;;3.57;;
5967;SDS011;3010;51.028;4.170;2023-07-20T00:20:31;7.17;;;4.03;;
5967;SDS011;3010;51.028;4.170;2023-07-20T00:22:58;7.73;;;4.23;;
5967;SDS011;3010;51.028;4.170;2023-07-20T00:25:25;4.67;;;3.60;;
5967;SDS011;3010;51.028;4.170;2023-07-20T00:27:51;3.73;;;3.37;;
5967;SDS011;3010;51.028;4.170;2023-07-20T00:30:18;6.10;;;3.87;;
5967;SDS011;3010;51.028;4.170;2023-07-20T00:32:44;4.00;;;3.70;;
5967;SDS011;3010;51.028;4.170;2023-07-20T00:35:11;7.32;;;4.57;;
5967;SDS011;3010;51.028;4.170;2023-07-20T00:37:38;5.00;;;4.50;;
5967;SDS011;3010;51.028;4.170;2023-07-20T00:40:04;7.37;;;4.77;;
5967;SDS011;3010;51.028;4.170;2023-07-20T00:42:31;4.73;;;4.10;;
5967;SDS011;3010;51.028;4.170;2023-07-20T00:44:58;4.43;;;4.03;;
5967;SDS011;3010;51.028;4.170;2023-07-20T00:47:24;4.80;;;4.10;;
5967;SDS011;3010;51.028;4.170;2023-07-20T00:49:51;11.40;;;4.53;;
5967;SDS011;3010;51.028;4.170;2023-07-20T00:52:17;4.70;;;4.13;;
5967;SDS011;3010;51.028;4.170;2023-07-20T00:54:44;9.93;;;4.53;;
5967;SDS011;3010;51.028;4.170;2023-07-20T00:57:10;5.20;;;4.47;;
5967;SDS011;3010;51.028;4.170;2023-07-20T00:59:37;6.50;;;4.77;;
5967;SDS011;3010;51.028;4.170;2023-07-20T01:02:04;4.70;;;4.30;;
5967;SDS011;3010;51.028;4.170;2023-07-20T01:04:30;6.53;;;4.80;;
5967;SDS011;3010;51.028;4.170;2023-07-20T01:09:26;6.63;;;5.20;;
5967;SDS011;3010;51.028;4.170;2023-07-20T01:12:10;7.07;;;5.43;;
5967;SDS011;3010;51.028;4.170;2023-07-20T01:14:35;5.47;;;5.07;;
5967;SDS011;3010;51.028;4.170;2023-07-20T01:17:02;7.97;;;6.50;;
5967;SDS011;3010;51.028;4.170;2023-07-20T01:19:28;9.30;;;6.37;;
5967;SDS011;3010;51.028;4.170;2023-07-20T01:24:50;9.70;;;6.60;;
5967;SDS011;3010;51.028;4.170;2023-07-20T01:30:16;9.87;;;6.30;;
5967;SDS011;3010;51.028;4.170;2023-07-20T01:32:59;9.00;;;6.70;;
5967;SDS011;3010;51.028;4.170;2023-07-20T01:35:27;10.93;;;6.87;;
5967;SDS011;3010;51.028;4.170;2023-07-20T01:37:52;8.47;;;6.67;;
5967;SDS011;3010;51.028;4.170;2023-07-20T01:40:19;12.37;;;7.50;;
5967;SDS011;3010;51.028;4.170;2023-07-20T01:42:45;14.67;;;7.07;;
5967;SDS011;3010;51.028;4.170;2023-07-20T01:45:12;12.43;;;8.50;;
5967;SDS011;3010;51.028;4.170;2023-07-20T01:47:38;10.53;;;7.80;;
5967;SDS011;3010;51.028;4.170;2023-07-20T01:50:05;11.48;;;8.57;;
5967;SDS011;3010;51.028;4.170;2023-07-20T01:52:32;15.47;;;7.70;;
5967;SDS011;3010;51.028;4.170;2023-07-20T01:54:58;16.50;;;8.17;;
5967;SDS011;3010;51.028;4.170;2023-07-20T01:57:25;13.97;;;8.40;;
5967;SDS011;3010;51.028;4.170;2023-07-20T01:59:52;11.47;;;8.03;;
5967;SDS011;3010;51.028;4.170;2023-07-20T02:02:18;12.57;;;8.30;;
5967;SDS011;3010;51.028;4.170;2023-07-20T02:04:45;10.80;;;7.37;;
5967;SDS011;3010;51.028;4.170;2023-07-20T02:07:11;9.70;;;6.93;;
5967;SDS011;3010;51.028;4.170;2023-07-20T02:09:38;10.13;;;8.37;;
5967;SDS011;3010;51.028;4.170;2023-07-20T02:12:04;11.50;;;7.93;;
5967;SDS011;3010;51.028;4.170;2023-07-20T02:14:31;12.80;;;7.93;;
5967;SDS011;3010;51.028;4.170;2023-07-20T02:16:58;14.48;;;9.20;;
5967;SDS011;3010;51.028;4.170;2023-07-20T02:19:25;14.00;;;7.70;;
5967;SDS011;3010;51.028;4.170;2023-07-20T02:21:51;8.37;;;7.57;;
5967;SDS011;3010;51.028;4.170;2023-07-20T02:24:17;12.50;;;8.17;;
5967;SDS011;3010;51.028;4.170;2023-07-20T02:26:44;12.10;;;7.77;;
5967;SDS011;3010;51.028;4.170;2023-07-20T02:29:11;15.03;;;8.83;;
5967;SDS011;3010;51.028;4.170;2023-07-20T02:31:37;15.17;;;8.33;;
5967;SDS011;3010;51.028;4.170;2023-07-20T02:34:04;13.43;;;8.20;;
5967;SDS011;3010;51.028;4.170;2023-07-20T02:36:30;11.70;;;8.30;;
5967;SDS011;3010;51.028;4.170;2023-07-20T02:38:57;15.83;;;8.53;;
5967;SDS011;3010;51.028;4.170;2023-07-20T02:41:24;20.42;;;10.57;;
5967;SDS011;3010;51.028;4.170;2023-07-20T02:43:50;14.57;;;8.90;;
5967;SDS011;3010;51.028;4.170;2023-07-20T02:46:17;10.23;;;9.03;;
5967;SDS011;3010;51.028;4.170;2023-07-20T02:48:43;11.93;;;9.17;;
5967;SDS011;3010;51.028;4.170;2023-07-20T02:51:10;11.80;;;9.27;;
5967;SDS011;3010;51.028;4.170;2023-07-20T02:53:37;14.33;;;8.93;;
5967;SDS011;3010;51.028;4.170;2023-07-20T02:56:03;17.27;;;9.73;;
5967;SDS011;3010;51.028;4.170;2023-07-20T02:58:30;10.57;;;8.33;;
5967;SDS011;3010;51.028;4.170;2023-07-20T03:00:56;15.57;;;9.57;;
5967;SDS011;3010;51.028;4.170;2023-07-20T03:03:23;10.57;;;8.83;;
5967;SDS011;3010;51.028;4.170;2023-07-20T03:05:50;12.20;;;9.23;;
5967;SDS011;3010;51.028;4.170;2023-07-20T03:08:16;11.53;;;8.83;;
5967;SDS011;3010;51.028;4.170;2023-07-20T03:10:43;11.77;;;8.53;;
5967;SDS011;3010;51.028;4.170;2023-07-20T03:13:09;14.43;;;10.20;;
5967;SDS011;3010;51.028;4.170;2023-07-20T03:15:36;13.43;;;9.80;;
5967;SDS011;3010;51.028;4.170;2023-07-20T03:18:02;14.63;;;10.00;;
5967;SDS011;3010;51.028;4.170;2023-07-20T03:20:29;16.40;;;9.97;;
5967;SDS011;3010;51.028;4.170;2023-07-20T03:22:56;13.83;;;10.10;;
5967;SDS011;3010;51.028;4.170;2023-07-20T03:25:22;14.37;;;10.07;;
5967;SDS011;3010;51.028;4.170;2023-07-20T03:27:49;15.43;;;11.13;;
5967;SDS011;3010;51.028;4.170;2023-07-20T03:30:15;15.00;;;11.33;;
5967;SDS011;3010;51.028;4.170;2023-07-20T03:32:42;13.30;;;10.33;;
5967;SDS011;3010;51.028;4.170;2023-07-20T03:35:09;16.20;;;10.47;;
5967;SDS011;3010;51.028;4.170;2023-07-20T03:37:35;14.13;;;10.73;;
5967;SDS011;3010;51.028;4.170;2023-07-20T03:40:02;16.53;;;11.00;;
5967;SDS011;3010;51.028;4.170;2023-07-20T03:42:28;13.27;;;9.57;;
5967;SDS011;3010;51.028;4.170;2023-07-20T03:44:55;16.07;;;10.43;;
5967;SDS011;3010;51.028;4.170;2023-07-20T03:47:22;15.70;;;10.30;;
5967;SDS011;3010;51.028;4.170;2023-07-20T03:49:48;14.03;;;10.27;;
5967;SDS011;3010;51.028;4.170;2023-07-20T03:52:15;16.87;;;11.93;;
5967;SDS011;3010;51.028;4.170;2023-07-20T03:54:41;14.67;;;11.07;;
5967;SDS011;3010;51.028;4.170;2023-07-20T03:57:08;16.20;;;10.90;;
5967;SDS011;3010;51.028;4.170;2023-07-20T03:59:36;12.67;;;10.30;;
5967;SDS011;3010;51.028;4.170;2023-07-20T04:02:01;14.37;;;10.57;;
5967;SDS011;3010;51.028;4.170;2023-07-20T04:04:28;13.60;;;10.30;;
5967;SDS011;3010;51.028;4.170;2023-07-20T04:06:54;15.87;;;11.13;;
5967;SDS011;3010;51.028;4.170;2023-07-20T04:09:21;15.33;;;10.60;;
5967;SDS011;3010;51.028;4.170;2023-07-20T04:11:48;13.43;;;10.67;;
5967;SDS011;3010;51.028;4.170;2023-07-20T04:14:14;14.97;;;10.80;;
5967;SDS011;3010;51.028;4.170;2023-07-20T04:16:41;13.73;;;10.77;;
5967;SDS011;3010;51.028;4.170;2023-07-20T04:19:07;11.63;;;10.47;;
5967;SDS011;3010;51.028;4.170;2023-07-20T04:21:39;16.03;;;10.97;;
5967;SDS011;3010;51.028;4.170;2023-07-20T04:24:01;18.20;;;11.30;;
5967;SDS011;3010;51.028;4.170;2023-07-20T04:26:27;16.97;;;11.63;;
5967;SDS011;3010;51.028;4.170;2023-07-20T04:28:54;16.23;;;10.77;;
5967;SDS011;3010;51.028;4.170;2023-07-20T04:31:20;12.50;;;11.00;;
5967;SDS011;3010;51.028;4.170;2023-07-20T04:33:47;15.63;;;11.13;;
5967;SDS011;3010;51.028;4.170;2023-07-20T04:36:14;15.73;;;11.57;;
5967;SDS011;3010;51.028;4.170;2023-07-20T04:38:40;15.53;;;11.40;;
5967;SDS011;3010;51.028;4.170;2023-07-20T04:41:07;16.63;;;12.07;;
5967;SDS011;3010;51.028;4.170;2023-07-20T04:43:33;17.43;;;11.67;;
5967;SDS011;3010;51.028;4.170;2023-07-20T04:46:00;15.97;;;12.27;;
5967;SDS011;3010;51.028;4.170;2023-07-20T04:48:27;14.97;;;11.47;;
5967;SDS011;3010;51.028;4.170;2023-07-20T04:50:53;14.13;;;11.53;;
5967;SDS011;3010;51.028;4.170;2023-07-20T04:53:20;17.37;;;11.80;;
5967;SDS011;3010;51.028;4.170;2023-07-20T04:55:49;13.00;;;11.47;;
5967;SDS011;3010;51.028;4.170;2023-07-20T04:58:19;16.47;;;12.20;;
5967;SDS011;3010;51.028;4.170;2023-07-20T05:00:45;14.40;;;11.40;;
5967;SDS011;3010;51.028;4.170;2023-07-20T05:03:12;16.70;;;12.83;;
5967;SDS011;3010;51.028;4.170;2023-07-20T05:05:38;17.17;;;11.83;;
5967;SDS011;3010;51.028;4.170;2023-07-20T05:08:05;14.97;;;11.00;;
5967;SDS011;3010;51.028;4.170;2023-07-20T05:10:32;14.23;;;11.03;;
5967;SDS011;3010;51.028;4.170;2023-07-20T05:12:59;14.63;;;11.77;;
5967;SDS011;3010;51.028;4.170;2023-07-20T05:15:25;13.53;;;11.20;;
5967;SDS011;3010;51.028;4.170;2023-07-20T05:17:51;15.50;;;11.33;;
5967;SDS011;3010;51.028;4.170;2023-07-20T05:20:18;13.97;;;12.33;;
5967;SDS011;3010;51.028;4.170;2023-07-20T05:22:45;14.93;;;11.63;;
5967;SDS011;3010;51.028;4.170;2023-07-20T05:25:11;14.30;;;12.50;;
5967;SDS011;3010;51.028;4.170;2023-07-20T05:27:38;14.07;;;11.20;;
5967;SDS011;3010;51.028;4.170;2023-07-20T05:30:04;14.00;;;11.67;;
5967;SDS011;3010;51.028;4.170;2023-07-20T05:32:31;13.03;;;10.93;;
5967;SDS011;3010;51.028;4.170;2023-07-20T05:34:58;13.50;;;10.13;;
5967;SDS011;3010;51.028;4.170;2023-07-20T05:37:24;12.17;;;10.00;;
5967;SDS011;3010;51.028;4.170;2023-07-20T05:39:51;12.47;;;9.83;;
5967;SDS011;3010;51.028;4.170;2023-07-20T05:42:17;11.47;;;9.87;;
5967;SDS011;3010;51.028;4.170;2023-07-20T05:44:44;11.35;;;9.50;;
5967;SDS011;3010;51.028;4.170;2023-07-20T05:47:11;13.87;;;9.03;;
5967;SDS011;3010;51.028;4.170;2023-07-20T05:49:37;10.10;;;8.63;;
5967;SDS011;3010;51.028;4.170;2023-07-20T05:52:04;10.30;;;8.57;;
5967;SDS011;3010;51.028;4.170;2023-07-20T05:54:30;9.07;;;8.23;;
5967;SDS011;3010;51.028;4.170;2023-07-20T05:56:57;8.15;;;7.32;;
5967;SDS011;3010;51.028;4.170;2023-07-20T05:59:24;8.63;;;7.33;;
5967;SDS011;3010;51.028;4.170;2023-07-20T06:01:50;7.87;;;7.18;;
5967;SDS011;3010;51.028;4.170;2023-07-20T06:04:17;8.40;;;6.87;;
5967;SDS011;3010;51.028;4.170;2023-07-20T06:06:43;7.77;;;6.83;;
5967;SDS011;3010;51.028;4.170;2023-07-20T06:09:10;6.60;;;6.03;;
5967;SDS011;3010;51.028;4.170;2023-07-20T06:11:36;6.55;;;5.95;;
5967;SDS011;3010;51.028;4.170;2023-07-20T06:14:03;6.20;;;5.50;;
5967;SDS011;3010;51.028;4.170;2023-07-20T06:16:30;7.97;;;5.87;;
5967;SDS011;3010;51.028;4.170;2023-07-20T06:18:56;5.13;;;4.83;;
5967;SDS011;3010;51.028;4.170;2023-07-20T06:21:23;4.80;;;4.50;;
5967;SDS011;3010;51.028;4.170;2023-07-20T06:23:49;4.40;;;4.03;;
5967;SDS011;3010;51.028;4.170;2023-07-20T06:26:16;4.10;;;3.77;;
5967;SDS011;3010;51.028;4.170;2023-07-20T06:28:43;4.40;;;4.10;;
5967;SDS011;3010;51.028;4.170;2023-07-20T06:31:09;4.80;;;4.40;;
5967;SDS011;3010;51.028;4.170;2023-07-20T06:33:36;4.10;;;3.87;;
5967;SDS011;3010;51.028;4.170;2023-07-20T06:36:02;4.47;;;4.17;;
5967;SDS011;3010;51.028;4.170;2023-07-20T06:38:29;5.23;;;4.70;;
5967;SDS011;3010;51.028;4.170;2023-07-20T06:40:55;4.73;;;4.43;;
5967;SDS011;3010;51.028;4.170;2023-07-20T06:43:22;4.23;;;3.80;;
5967;SDS011;3010;51.028;4.170;2023-07-20T06:45:52;4.00;;;3.80;;
5967;SDS011;3010;51.028;4.170;2023-07-20T06:48:18;4.10;;;3.80;;
5967;SDS011;3010;51.028;4.170;2023-07-20T06:50:45;4.13;;;3.83;;
5967;SDS011;3010;51.028;4.170;2023-07-20T06:53:12;3.57;;;3.37;;
5967;SDS011;3010;51.028;4.170;2023-07-20T06:55:38;4.87;;;4.40;;
5967;SDS011;3010;51.028;4.170;2023-07-20T06:58:05;6.40;;;4.30;;
5967;SDS011;3010;51.028;4.170;2023-07-20T07:00:31;3.30;;;3.10;;
5967;SDS011;3010;51.028;4.170;2023-07-20T07:02:58;2.93;;;2.83;;
5967;SDS011;3010;51.028;4.170;2023-07-20T07:05:24;3.50;;;3.30;;
5967;SDS011;3010;51.028;4.170;2023-07-20T07:07:51;3.70;;;3.50;;
5967;SDS011;3010;51.028;4.170;2023-07-20T07:10:17;3.27;;;3.07;;
5967;SDS011;3010;51.028;4.170;2023-07-20T07:12:44;2.80;;;2.70;;
5967;SDS011;3010;51.028;4.170;2023-07-20T07:15:11;3.13;;;2.93;;
5967;SDS011;3010;51.028;4.170;2023-07-20T07:17:37;2.57;;;2.37;;
5967;SDS011;3010;51.028;4.170;2023-07-20T07:20:04;2.67;;;2.58;;
5967;SDS011;3010;51.028;4.170;2023-07-20T07:22:31;1.90;;;1.80;;
5967;SDS011;3010;51.028;4.170;2023-07-20T07:24:57;2.17;;;2.17;;
5967;SDS011;3010;51.028;4.170;2023-07-20T07:27:24;2.47;;;2.30;;
5967;SDS011;3010;51.028;4.170;2023-07-20T07:29:50;2.87;;;2.77;;
5967;SDS011;3010;51.028;4.170;2023-07-20T07:32:17;2.57;;;2.47;;
5967;SDS011;3010;51.028;4.170;2023-07-20T07:34:44;3.10;;;2.80;;
5967;SDS011;3010;51.028;4.170;2023-07-20T07:37:10;2.25;;;2.15;;
5967;SDS011;3010;51.028;4.170;2023-07-20T07:39:37;1.63;;;1.60;;
5967;SDS011;3010;51.028;4.170;2023-07-20T07:42:03;1.97;;;1.87;;
5967;SDS011;3010;51.028;4.170;2023-07-20T07:44:30;1.60;;;1.60;;
5967;SDS011;3010;51.028;4.170;2023-07-20T07:46:56;2.37;;;2.20;;
5967;SDS011;3010;51.028;4.170;2023-07-20T07:49:23;1.20;;;1.20;;
5967;SDS011;3010;51.028;4.170;2023-07-20T07:51:50;1.20;;;1.20;;
5967;SDS011;3010;51.028;4.170;2023-07-20T07:54:16;1.60;;;1.50;;
5967;SDS011;3010;51.028;4.170;2023-07-20T07:56:43;1.67;;;1.57;;
5967;SDS011;3010;51.028;4.170;2023-07-20T07:59:09;2.20;;;1.50;;
5967;SDS011;3010;51.028;4.170;2023-07-20T08:01:36;2.20;;;1.70;;
5967;SDS011;3010;51.028;4.170;2023-07-20T08:04:03;1.37;;;1.37;;
5967;SDS011;3010;51.028;4.170;2023-07-20T08:06:29;1.40;;;1.40;;
5967;SDS011;3010;51.028;4.170;2023-07-20T08:08:56;2.00;;;1.80;;
5967;SDS011;3010;51.028;4.170;2023-07-20T08:11:23;1.70;;;1.60;;
5967;SDS011;3010;51.028;4.170;2023-07-20T08:13:49;1.63;;;1.63;;
5967;SDS011;3010;51.028;4.170;2023-07-20T08:16:15;3.70;;;1.50;;
5967;SDS011;3010;51.028;4.170;2023-07-20T08:18:43;1.70;;;1.60;;
5967;SDS011;3010;51.028;4.170;2023-07-20T08:21:09;1.67;;;1.57;;
5967;SDS011;3010;51.028;4.170;2023-07-20T08:23:35;1.30;;;1.30;;
5967;SDS011;3010;51.028;4.170;2023-07-20T08:26:02;1.50;;;1.40;;
5967;SDS011;3010;51.028;4.170;2023-07-20T08:28:28;1.83;;;1.83;;
5967;SDS011;3010;51.028;4.170;2023-07-20T08:30:55;1.67;;;1.57;;
5967;SDS011;3010;51.028;4.170;2023-07-20T08:33:22;1.67;;;1.67;;
5967;SDS011;3010;51.028;4.170;2023-07-20T08:35:48;1.60;;;1.50;;
5967;SDS011;3010;51.028;4.170;2023-07-20T08:38:15;1.27;;;1.27;;
5967;SDS011;3010;51.028;4.170;2023-07-20T08:40:42;3.13;;;1.57;;
5967;SDS011;3010;51.028;4.170;2023-07-20T08:43:11;1.40;;;1.40;;
5967;SDS011;3010;51.028;4.170;2023-07-20T08:45:38;1.40;;;1.40;;
5967;SDS011;3010;51.028;4.170;2023-07-20T08:48:07;1.03;;;1.03;;
5967;SDS011;3010;51.028;4.170;2023-07-20T08:50:33;1.10;;;1.10;;
5967;SDS011;3010;51.028;4.170;2023-07-20T08:53:00;1.03;;;1.03;;
5967;SDS011;3010;51.028;4.170;2023-07-20T08:55:26;0.97;;;0.97;;
5967;SDS011;3010;51.028;4.170;2023-07-20T08:57:54;1.10;;;1.00;;
5967;SDS011;3010;51.028;4.170;2023-07-20T09:00:22;0.93;;;0.93;;
5967;SDS011;3010;51.028;4.170;2023-07-20T09:02:52;0.97;;;0.90;;
5967;SDS011;3010;51.028;4.170;2023-07-20T09:05:15;2.40;;;0.93;;
5967;SDS011;3010;51.028;4.170;2023-07-20T09:07:42;1.33;;;0.80;;
5967;SDS011;3010;51.028;4.170;2023-07-20T09:10:08;0.80;;;0.80;;
5967;SDS011;3010;51.028;4.170;2023-07-20T09:12:35;2.90;;;1.10;;
5967;SDS011;3010;51.028;4.170;2023-07-20T09:15:02;0.90;;;0.90;;
5967;SDS011;3010;51.028;4.170;2023-07-20T09:17:28;1.10;;;1.10;;
5967;SDS011;3010;51.028;4.170;2023-07-20T09:19:55;1.10;;;1.10;;
5967;SDS011;3010;51.028;4.170;2023-07-20T09:22:21;1.00;;;1.00;;
5967;SDS011;3010;51.028;4.170;2023-07-20T09:24:48;1.53;;;1.53;;
5967;SDS011;3010;51.028;4.170;2023-07-20T09:27:14;1.50;;;1.40;;
5967;SDS011;3010;51.028;4.170;2023-07-20T09:29:48;1.10;;;1.10;;
5967;SDS011;3010;51.028;4.170;2023-07-20T09:32:13;1.27;;;1.27;;
5967;SDS011;3010;51.028;4.170;2023-07-20T09:34:40;1.40;;;1.40;;
5967;SDS011;3010;51.028;4.170;2023-07-20T09:37:07;2.00;;;1.53;;
5967;SDS011;3010;51.028;4.170;2023-07-20T09:39:40;1.30;;;1.20;;
5967;SDS011;3010;51.028;4.170;2023-07-20T09:42:00;1.23;;;1.23;;
5967;SDS011;3010;51.028;4.170;2023-07-20T09:44:27;1.67;;;1.40;;
5967;SDS011;3010;51.028;4.170;2023-07-20T09:46:53;1.60;;;1.50;;
5967;SDS011;3010;51.028;4.170;2023-07-20T09:49:20;1.57;;;1.43;;
5967;SDS011;3010;51.028;4.170;2023-07-20T09:51:46;1.27;;;1.27;;
5967;SDS011;3010;51.028;4.170;2023-07-20T09:54:13;1.60;;;1.50;;
5967;SDS011;3010;51.028;4.170;2023-07-20T09:56:39;1.60;;;1.60;;
5967;SDS011;3010;51.028;4.170;2023-07-20T09:59:06;1.57;;;1.57;;
5967;SDS011;3010;51.028;4.170;2023-07-20T10:01:33;1.50;;;1.50;;
5967;SDS011;3010;51.028;4.170;2023-07-20T10:03:59;1.77;;;1.67;;
5967;SDS011;3010;51.028;4.170;2023-07-20T10:06:26;1.50;;;1.50;;
5967;SDS011;3010;51.028;4.170;2023-07-20T10:08:53;1.30;;;1.30;;
5967;SDS011;3010;51.028;4.170;2023-07-20T10:11:19;1.60;;;1.60;;
5967;SDS011;3010;51.028;4.170;2023-07-20T10:13:45;1.43;;;1.40;;
5967;SDS011;3010;51.028;4.170;2023-07-20T10:16:15;1.83;;;1.70;;
5967;SDS011;3010;51.028;4.170;2023-07-20T10:18:44;2.20;;;2.10;;
5967;SDS011;3010;51.028;4.170;2023-07-20T10:21:08;1.80;;;1.70;;
5967;SDS011;3010;51.028;4.170;2023-07-20T10:23:34;1.87;;;1.70;;
5967;SDS011;3010;51.028;4.170;2023-07-20T10:26:01;2.20;;;2.20;;
5967;SDS011;3010;51.028;4.170;2023-07-20T10:28:28;2.60;;;2.50;;
5967;SDS011;3010;51.028;4.170;2023-07-20T10:30:54;2.00;;;2.00;;
5967;SDS011;3010;51.028;4.170;2023-07-20T10:33:21;2.03;;;1.87;;
5967;SDS011;3010;51.028;4.170;2023-07-20T10:35:51;2.20;;;2.20;;
5967;SDS011;3010;51.028;4.170;2023-07-20T10:38:17;2.50;;;2.40;;
5967;SDS011;3010;51.028;4.170;2023-07-20T10:40:43;2.70;;;2.60;;
5967;SDS011;3010;51.028;4.170;2023-07-20T10:43:10;2.47;;;2.37;;
5967;SDS011;3010;51.028;4.170;2023-07-20T10:45:39;2.80;;;2.70;;
5967;SDS011;3010;51.028;4.170;2023-07-20T10:48:07;3.20;;;3.00;;
5967;SDS011;3010;51.028;4.170;2023-07-20T10:50:33;2.70;;;2.50;;
5967;SDS011;3010;51.028;4.170;2023-07-20T10:53:09;2.33;;;2.33;;
5967;SDS011;3010;51.028;4.170;2023-07-20T10:55:38;2.90;;;2.80;;
5967;SDS011;3010;51.028;4.170;2023-07-20T10:58:14;3.13;;;2.93;;
5967;SDS011;3010;51.028;4.170;2023-07-20T11:01:02;3.07;;;2.90;;
5967;SDS011;3010;51.028;4.170;2023-07-20T11:03:06;2.45;;;2.40;;
5967;SDS011;3010;51.028;4.170;2023-07-20T11:08:05;2.33;;;2.13;;
5967;SDS011;3010;51.028;4.170;2023-07-20T11:10:31;3.93;;;2.80;;
5967;SDS011;3010;51.028;4.170;2023-07-20T11:18:27;2.60;;;2.57;;
5967;SDS011;3010;51.028;4.170;2023-07-20T11:20:53;2.87;;;2.63;;
5967;SDS011;3010;51.028;4.170;2023-07-20T11:23:20;3.30;;;3.00;;
5967;SDS011;3010;51.028;4.170;2023-07-20T11:25:47;3.90;;;3.80;;
5967;SDS011;3010;51.028;4.170;2023-07-20T11:28:13;3.57;;;3.37;;
5967;SDS011;3010;51.028;4.170;2023-07-20T11:30:40;3.70;;;3.40;;
5967;SDS011;3010;51.028;4.170;2023-07-20T11:33:10;3.50;;;3.50;;
5967;SDS011;3010;51.028;4.170;2023-07-20T11:35:42;3.77;;;3.57;;
5967;SDS011;3010;51.028;4.170;2023-07-20T11:38:08;3.62;;;3.53;;
5967;SDS011;3010;51.028;4.170;2023-07-20T11:40:35;5.03;;;4.83;;
5967;SDS011;3010;51.028;4.170;2023-07-20T11:43:01;4.00;;;3.80;;
5967;SDS011;3010;51.028;4.170;2023-07-20T11:45:28;3.90;;;3.50;;
5967;SDS011;3010;51.028;4.170;2023-07-20T11:47:55;4.25;;;4.05;;
5967;SDS011;3010;51.028;4.170;2023-07-20T11:50:21;4.33;;;4.03;;
5967;SDS011;3010;51.028;4.170;2023-07-20T11:52:48;3.87;;;3.77;;
5967;SDS011;3010;51.028;4.170;2023-07-20T11:55:14;4.23;;;4.00;;
5967;SDS011;3010;51.028;4.170;2023-07-20T11:57:41;3.00;;;2.90;;
5967;SDS011;3010;51.028;4.170;2023-07-20T12:00:09;3.23;;;3.13;;
5967;SDS011;3010;51.028;4.170;2023-07-20T12:02:34;3.97;;;3.83;;
5967;SDS011;3010;51.028;4.170;2023-07-20T12:05:02;4.43;;;4.23;;
5967;SDS011;3010;51.028;4.170;2023-07-20T12:07:28;4.50;;;4.30;;
5967;SDS011;3010;51.028;4.170;2023-07-20T12:10:04;4.07;;;3.87;;
5967;SDS011;3010;51.028;4.170;2023-07-20T12:12:31;4.60;;;4.40;;
5967;SDS011;3010;51.028;4.170;2023-07-20T12:15:11;3.97;;;3.90;;
5967;SDS011;3010;51.028;4.170;2023-07-20T12:17:23;4.10;;;4.00;;
5967;SDS011;3010;51.028;4.170;2023-07-20T12:19:49;4.00;;;3.70;;
5967;SDS011;3010;51.028;4.170;2023-07-20T12:22:16;3.10;;;3.10;;
5967;SDS011;3010;51.028;4.170;2023-07-20T12:24:43;2.87;;;2.87;;
5967;SDS011;3010;51.028;4.170;2023-07-20T12:27:12;3.70;;;3.20;;
5967;SDS011;3010;51.028;4.170;2023-07-20T12:29:36;2.83;;;2.72;;
5967;SDS011;3010;51.028;4.170;2023-07-20T12:32:02;3.00;;;2.90;;
5967;SDS011;3010;51.028;4.170;2023-07-20T12:34:29;2.50;;;2.50;;
5967;SDS011;3010;51.028;4.170;2023-07-20T12:36:55;2.50;;;2.50;;
5967;SDS011;3010;51.028;4.170;2023-07-20T12:39:22;2.67;;;2.58;;
5967;SDS011;3010;51.028;4.170;2023-07-20T12:41:49;2.90;;;2.80;;
5967;SDS011;3010;51.028;4.170;2023-07-20T12:44:15;2.28;;;2.17;;
5967;SDS011;3010;51.028;4.170;2023-07-20T12:46:42;2.20;;;2.10;;
5967;SDS011;3010;51.028;4.170;2023-07-20T12:49:08;2.30;;;2.20;;
5967;SDS011;3010;51.028;4.170;2023-07-20T12:51:35;1.90;;;1.90;;
5967;SDS011;3010;51.028;4.170;2023-07-20T12:54:02;2.43;;;2.43;;
5967;SDS011;3010;51.028;4.170;2023-07-20T12:56:28;2.60;;;2.40;;
5967;SDS011;3010;51.028;4.170;2023-07-20T12:58:55;2.47;;;2.27;;
5967;SDS011;3010;51.028;4.170;2023-07-20T13:01:21;1.90;;;1.80;;
5967;SDS011;3010;51.028;4.170;2023-07-20T13:03:48;2.10;;;2.00;;
5967;SDS011;3010;51.028;4.170;2023-07-20T13:06:15;1.77;;;1.67;;
5967;SDS011;3010;51.028;4.170;2023-07-20T13:08:41;3.23;;;1.70;;
5967;SDS011;3010;51.028;4.170;2023-07-20T13:11:08;3.23;;;1.50;;
5967;SDS011;3010;51.028;4.170;2023-07-20T13:13:34;3.87;;;2.10;;
5967;SDS011;3010;51.028;4.170;2023-07-20T13:16:01;2.10;;;1.92;;
5967;SDS011;3010;51.028;4.170;2023-07-20T13:18:27;2.00;;;1.80;;
5967;SDS011;3010;51.028;4.170;2023-07-20T13:20:54;1.90;;;1.67;;
5967;SDS011;3010;51.028;4.170;2023-07-20T13:23:21;1.87;;;1.70;;
5967;SDS011;3010;51.028;4.170;2023-07-20T13:25:47;1.87;;;1.77;;
5967;SDS011;3010;51.028;4.170;2023-07-20T13:28:14;1.57;;;1.50;;
5967;SDS011;3010;51.028;4.170;2023-07-20T13:30:40;1.97;;;1.97;;
5967;SDS011;3010;51.028;4.170;2023-07-20T13:33:07;2.03;;;1.93;;
5967;SDS011;3010;51.028;4.170;2023-07-20T13:35:34;2.00;;;1.90;;
5967;SDS011;3010;51.028;4.170;2023-07-20T13:38:00;2.10;;;1.90;;
5967;SDS011;3010;51.028;4.170;2023-07-20T13:40:27;2.00;;;1.90;;
5967;SDS011;3010;51.028;4.170;2023-07-20T13:42:53;2.23;;;2.13;;
5967;SDS011;3010;51.028;4.170;2023-07-20T13:45:20;5.40;;;2.00;;
5967;SDS011;3010;51.028;4.170;2023-07-20T13:47:46;1.75;;;1.75;;
5967;SDS011;3010;51.028;4.170;2023-07-20T13:50:13;2.43;;;2.30;;
5967;SDS011;3010;51.028;4.170;2023-07-20T13:52:40;2.33;;;2.03;;
5967;SDS011;3010;51.028;4.170;2023-07-20T13:55:06;2.20;;;2.10;;
5967;SDS011;3010;51.028;4.170;2023-07-20T13:57:33;1.90;;;1.90;;
5967;SDS011;3010;51.028;4.170;2023-07-20T13:59:59;2.07;;;1.97;;
5967;SDS011;3010;51.028;4.170;2023-07-20T14:02:26;2.83;;;2.03;;
5967;SDS011;3010;51.028;4.170;2023-07-20T14:04:53;2.67;;;2.47;;
5967;SDS011;3010;51.028;4.170;2023-07-20T14:07:19;2.97;;;2.87;;
5967;SDS011;3010;51.028;4.170;2023-07-20T14:09:46;1.77;;;1.70;;
5967;SDS011;3010;51.028;4.170;2023-07-20T14:12:12;7.83;;;1.70;;
5967;SDS011;3010;51.028;4.170;2023-07-20T14:14:39;1.30;;;1.30;;
5967;SDS011;3010;51.028;4.170;2023-07-20T14:17:06;1.13;;;1.03;;
5967;SDS011;3010;51.028;4.170;2023-07-20T14:19:32;1.93;;;1.37;;
5967;SDS011;3010;51.028;4.170;2023-07-20T14:21:59;1.70;;;1.10;;
5967;SDS011;3010;51.028;4.170;2023-07-20T14:24:25;1.70;;;1.20;;
5967;SDS011;3010;51.028;4.170;2023-07-20T14:26:52;1.07;;;1.07;;
5967;SDS011;3010;51.028;4.170;2023-07-20T14:29:18;0.90;;;0.90;;
5967;SDS011;3010;51.028;4.170;2023-07-20T14:31:45;0.83;;;0.83;;
5967;SDS011;3010;51.028;4.170;2023-07-20T14:34:12;0.97;;;0.97;;
5967;SDS011;3010;51.028;4.170;2023-07-20T14:36:38;1.60;;;1.30;;
5967;SDS011;3010;51.028;4.170;2023-07-20T14:39:05;1.67;;;1.60;;
5967;SDS011;3010;51.028;4.170;2023-07-20T14:41:31;1.60;;;1.60;;
5967;SDS011;3010;51.028;4.170;2023-07-20T14:43:58;1.70;;;1.60;;
5967;SDS011;3010;51.028;4.170;2023-07-20T14:46:25;1.93;;;1.90;;
5967;SDS011;3010;51.028;4.170;2023-07-20T14:48:51;2.47;;;1.80;;
5967;SDS011;3010;51.028;4.170;2023-07-20T14:51:18;3.47;;;2.27;;
5967;SDS011;3010;51.028;4.170;2023-07-20T14:53:44;3.37;;;2.40;;
5967;SDS011;3010;51.028;4.170;2023-07-20T14:56:11;2.20;;;2.10;;
5967;SDS011;3010;51.028;4.170;2023-07-20T14:58:37;2.30;;;2.30;;
5967;SDS011;3010;51.028;4.170;2023-07-20T15:01:04;3.73;;;2.27;;
5967;SDS011;3010;51.028;4.170;2023-07-20T15:03:31;3.50;;;2.33;;
5967;SDS011;3010;51.028;4.170;2023-07-20T15:05:57;5.20;;;2.00;;
5967;SDS011;3010;51.028;4.170;2023-07-20T15:08:24;2.63;;;2.10;;
5967;SDS011;3010;51.028;4.170;2023-07-20T15:10:50;2.77;;;2.57;;
5967;SDS011;3010;51.028;4.170;2023-07-20T15:13:17;2.90;;;2.80;;
5967;SDS011;3010;51.028;4.170;2023-07-20T15:15:44;2.87;;;2.77;;
5967;SDS011;3010;51.028;4.170;2023-07-20T15:18:10;3.20;;;2.97;;
5967;SDS011;3010;51.028;4.170;2023-07-20T15:20:37;2.90;;;2.80;;
5967;SDS011;3010;51.028;4.170;2023-07-20T15:23:03;3.70;;;3.50;;